Time;durP1;ratioP1;P1;durP2;ratioP2;P2;SDS_P1;SDS_P2;PMS_P1;PMS_P2;Temp;Humidity;BMP_temperature;BMP_pressure;BME280_temperature;BME280_humidity;BME280_pressure;Samples;Min_cycle;Max_cycle;Signal;HPM_P1;HPM_P2
2021/04/19 00:01:50;;;;;;;16.45;12.52;;;3.70;76.40;;;;;;4990434;29;20045;-68
2021/04/19 00:04:21;;;;;;;16.88;11.85;;;3.60;76.30;;;;;;4990146;29;20125;-66
2021/04/19 00:06:53;;;;;;;16.23;12.48;;;3.60;76.40;;;;;;4978184;29;20058;-66
2021/04/19 00:09:25;;;;;;;15.23;11.90;;;3.50;76.60;;;;;;4988689;29;20124;-67
2021/04/19 00:11:56;;;;;;;16.23;11.40;;;3.50;76.50;;;;;;4992921;29;20569;-66
2021/04/19 00:14:28;;;;;;;15.50;11.98;;;3.50;76.30;;;;;;4992628;29;20082;-67
2021/04/19 00:16:59;;;;;;;14.63;11.27;;;3.50;76.10;;;;;;4987988;29;20790;-66
2021/04/19 00:19:31;;;;;;;15.10;11.70;;;3.60;75.90;;;;;;5003731;29;20141;-66
2021/04/19 00:22:03;;;;;;;15.07;11.48;;;3.60;76.20;;;;;;4989215;29;20596;-66
2021/04/19 00:24:34;;;;;;;15.55;11.88;;;3.60;76.20;;;;;;4994043;29;20063;-67
2021/04/19 00:27:06;;;;;;;16.73;12.50;;;3.70;76.00;;;;;;4991572;29;20142;-66
2021/04/19 00:29:37;;;;;;;16.45;11.90;;;3.70;76.30;;;;;;4990395;29;20582;-66
2021/04/19 00:32:09;;;;;;;16.45;11.38;;;3.70;76.90;;;;;;4990334;29;20058;-66
2021/04/19 00:34:41;;;;;;;15.88;12.30;;;3.70;76.20;;;;;;4991009;29;20062;-66
2021/04/19 00:37:12;;;;;;;15.25;10.98;;;3.70;75.70;;;;;;4991133;29;20560;-66
2021/04/19 00:39:44;;;;;;;17.30;13.13;;;3.70;75.70;;;;;;4989816;29;20304;-66
2021/04/19 00:42:16;;;;;;;16.65;12.02;;;3.70;77.10;;;;;;4990983;29;20057;-66
2021/04/19 00:44:48;;;;;;;18.73;12.77;;;3.70;76.80;;;;;;4992306;29;20543;-67
2021/04/19 00:47:19;;;;;;;20.05;14.75;;;3.70;77.40;;;;;;4988860;29;20049;-66
2021/04/19 00:49:51;;;;;;;19.92;14.48;;;3.70;78.10;;;;;;4990468;29;20056;-66
2021/04/19 00:52:23;;;;;;;19.15;12.80;;;3.70;77.60;;;;;;4992991;29;20125;-66
2021/04/19 00:54:59;;;;;;;15.45;11.65;;;3.80;77.00;;;;;;4991834;29;20062;-66
2021/04/19 00:57:37;;;;;;;17.73;13.02;;;3.70;76.50;;;;;;4992829;29;20058;-66
2021/04/19 01:00:13;;;;;;;16.27;12.43;;;3.70;76.50;;;;;;4992743;29;20053;-67
2021/04/19 01:02:45;;;;;;;15.05;11.80;;;3.60;76.60;;;;;;4991457;29;20165;-66
2021/04/19 01:05:23;;;;;;;16.90;12.82;;;3.50;76.50;;;;;;4991311;29;20149;-66
2021/04/19 01:07:55;;;;;;;16.42;12.95;;;3.50;76.80;;;;;;4993559;29;20060;-65
2021/04/19 01:10:28;;;;;;;13.68;10.82;;;3.60;76.60;;;;;;4991492;29;20057;-65
2021/04/19 01:12:59;;;;;;;14.20;11.35;;;3.60;76.50;;;;;;4991122;29;20058;-66
2021/04/19 01:15:32;;;;;;;15.00;12.05;;;3.50;76.60;;;;;;4995604;29;20065;-66
2021/04/19 01:18:04;;;;;;;15.88;11.52;;;3.30;76.70;;;;;;4990413;29;20477;-67
2021/04/19 01:20:39;;;;;;;14.52;10.70;;;3.30;76.90;;;;;;4990501;29;20046;-66
2021/04/19 01:23:13;;;;;;;14.02;10.88;;;3.30;76.80;;;;;;4994260;29;20042;-66
2021/04/19 01:25:45;;;;;;;12.90;9.63;;;3.30;76.60;;;;;;4995693;29;20666;-65
2021/04/19 01:28:19;;;;;;;14.30;10.38;;;3.20;76.60;;;;;;5006361;29;20205;-66
2021/04/19 01:30:51;;;;;;;13.10;10.30;;;3.20;76.40;;;;;;4993308;29;20175;-68
2021/04/19 01:33:25;;;;;;;13.35;10.43;;;3.20;76.50;;;;;;5009246;29;20142;-68
2021/04/19 01:35:57;;;;;;;12.43;9.52;;;3.20;76.70;;;;;;4989860;29;20046;-66
2021/04/19 01:38:29;;;;;;;13.52;9.93;;;3.10;76.60;;;;;;5005994;29;20038;-66
2021/04/19 01:41:01;;;;;;;13.48;10.43;;;3.10;76.70;;;;;;4993423;29;20062;-67
2021/04/19 01:43:33;;;;;;;13.32;10.02;;;3.20;76.50;;;;;;4998106;29;20042;-67
2021/04/19 01:46:09;;;;;;;12.20;9.10;;;3.20;76.40;;;;;;4995057;29;20529;-68
2021/04/19 01:48:40;;;;;;;13.25;10.13;;;3.20;76.40;;;;;;4992318;29;20049;-67
2021/04/19 01:51:13;;;;;;;13.02;9.85;;;3.20;76.30;;;;;;4991390;29;20060;-67
2021/04/19 01:53:45;;;;;;;14.35;10.13;;;3.00;76.50;;;;;;5006852;29;20057;-67
2021/04/19 01:56:17;;;;;;;12.95;9.85;;;3.00;76.60;;;;;;4984276;29;20106;-67
2021/04/19 01:58:49;;;;;;;13.88;10.20;;;3.00;76.60;;;;;;5002791;29;20054;-66
2021/04/19 02:01:21;;;;;;;12.50;9.40;;;3.00;76.60;;;;;;5005330;29;20047;-66
2021/04/19 02:04:07;;;;;;;13.52;9.65;;;3.00;76.40;;;;;;4990345;29;20050;-67
2021/04/19 02:07:01;;;;;;;12.05;9.32;;;3.10;76.50;;;;;;5005754;29;20067;-67
2021/04/19 02:09:46;;;;;;;12.93;9.93;;;3.10;76.30;;;;;;4989919;29;20891;-66
2021/04/19 02:12:44;;;;;;;12.13;9.38;;;3.10;76.20;;;;;;5003690;29;20149;-67
2021/04/19 02:15:35;;;;;;;12.48;9.50;;;3.20;76.40;;;;;;4993513;29;20056;-67
2021/04/19 02:18:41;;;;;;;13.45;10.20;;;3.20;75.80;;;;;;5006906;29;20081;-67
2021/04/19 02:21:20;;;;;;;13.15;9.75;;;3.10;75.80;;;;;;4994141;29;20173;-67
2021/04/19 02:24:00;;;;;;;13.50;9.43;;;3.10;75.90;;;;;;4992242;29;20102;-68
2021/04/19 02:26:38;;;;;;;15.38;9.10;;;3.10;76.40;;;;;;5005462;29;20042;-68
2021/04/19 02:29:19;;;;;;;12.88;9.82;;;3.10;76.50;;;;;;5008707;29;20054;-67
2021/04/19 02:32:00;;;;;;;14.93;9.80;;;3.10;76.40;;;;;;4990484;29;20138;-67
2021/04/19 02:34:41;;;;;;;14.43;9.77;;;3.00;76.50;;;;;;4991117;29;20085;-67
2021/04/19 02:37:14;;;;;;;13.43;10.23;;;3.00;76.70;;;;;;5004503;29;20155;-67
2021/04/19 02:39:50;;;;;;;13.43;9.55;;;3.00;76.80;;;;;;5005883;29;20432;-67
2021/04/19 02:42:21;;;;;;;11.18;8.75;;;3.00;76.60;;;;;;5006917;29;20073;-67
2021/04/19 02:44:57;;;;;;;11.85;9.02;;;3.00;76.60;;;;;;4991897;29;20058;-67
2021/04/19 02:47:58;;;;;;;11.82;9.38;;;3.10;77.20;;;;;;4982109;29;20050;-67
2021/04/19 02:50:51;;;;;;;12.40;9.20;;;3.10;76.70;;;;;;4987171;29;20535;-67
2021/04/19 02:53:23;;;;;;;12.77;9.35;;;3.20;76.50;;;;;;5007355;29;20052;-66
2021/04/19 02:55:56;;;;;;;12.52;9.50;;;3.20;76.30;;;;;;4991096;29;20065;-67
2021/04/19 02:58:47;;;;;;;14.75;11.15;;;3.30;76.50;;;;;;4992021;29;20733;-66
2021/04/19 03:01:25;;;;;;;16.88;12.57;;;3.30;77.70;;;;;;5005630;29;20062;-67
2021/04/19 03:04:11;;;;;;;14.93;10.55;;;3.30;79.10;;;;;;4988068;29;20061;-66
2021/04/19 03:06:54;;;;;;;13.25;10.10;;;3.30;78.30;;;;;;5007694;29;20042;-67
2021/04/19 03:09:27;;;;;;;13.93;10.88;;;3.30;77.50;;;;;;4987788;29;20057;-67
2021/04/19 03:12:02;;;;;;;18.92;13.55;;;3.40;77.90;;;;;;4989461;29;20071;-67
2021/04/19 03:15:01;;;;;;;17.98;13.25;;;3.40;80.00;;;;;;4992116;29;20138;-67
2021/04/19 03:17:37;;;;;;;17.33;13.38;;;3.40;79.50;;;;;;4996698;29;20058;-67
2021/04/19 03:20:16;;;;;;;17.65;12.95;;;3.40;79.50;;;;;;4991379;29;20416;-66
2021/04/19 03:23:18;;;;;;;14.90;11.20;;;3.50;79.80;;;;;;4999488;29;20535;-67
2021/04/19 03:25:57;;;;;;;14.65;10.95;;;3.50;78.90;;;;;;4987662;29;20043;-66
2021/04/19 03:28:32;;;;;;;14.85;11.50;;;3.50;78.30;;;;;;5003548;29;20061;-66
2021/04/19 03:31:35;;;;;;;17.85;11.88;;;3.50;78.30;;;;;;4991472;29;20539;-67
2021/04/19 03:34:16;;;;;;;15.45;11.38;;;3.50;78.30;;;;;;5006372;29;20054;-66
2021/04/19 03:36:54;;;;;;;15.88;12.20;;;3.60;77.80;;;;;;4989338;29;20050;-66
2021/04/19 03:39:26;;;;;;;17.25;13.98;;;3.70;77.90;;;;;;4991203;29;20633;-66
2021/04/19 03:41:59;;;;;;;18.40;12.77;;;3.70;77.70;;;;;;5005440;29;20050;-66
2021/04/19 03:44:35;;;;;;;16.23;11.57;;;3.80;77.30;;;;;;4995112;29;20526;-67
2021/04/19 03:47:09;;;;;;;15.60;12.15;;;3.70;77.30;;;;;;5002527;29;20054;-68
2021/04/19 03:49:59;;;;;;;13.75;10.07;;;3.80;77.10;;;;;;4978046;29;20160;-68
2021/04/19 03:52:36;;;;;;;15.55;11.48;;;3.80;77.40;;;;;;4990145;29;20431;-67
2021/04/19 03:55:12;;;;;;;17.35;13.90;;;3.80;77.80;;;;;;4992136;29;20053;-67
2021/04/19 03:57:47;;;;;;;19.88;15.18;;;3.70;78.90;;;;;;5020118;29;20141;-67
2021/04/19 04:00:30;;;;;;;20.42;15.82;;;3.70;79.20;;;;;;5004163;29;20066;-67
2021/04/19 04:03:20;;;;;;;21.55;15.80;;;3.70;79.50;;;;;;5004679;29;20082;-67
2021/04/19 04:06:16;;;;;;;22.50;16.33;;;3.70;79.50;;;;;;4999102;29;20050;-67
2021/04/19 04:08:51;;;;;;;21.40;16.13;;;3.70;79.80;;;;;;5004656;29;20053;-68
2021/04/19 04:11:23;;;;;;;20.75;15.80;;;3.60;80.10;;;;;;4991781;29;20054;-68
2021/04/19 04:14:04;;;;;;;20.83;15.75;;;3.60;79.90;;;;;;5004736;29;20050;-67
2021/04/19 04:16:44;;;;;;;20.02;15.80;;;3.60;80.00;;;;;;5003664;29;20225;-67
2021/04/19 04:19:19;;;;;;;20.02;15.52;;;3.60;80.20;;;;;;5004705;29;20054;-67
2021/04/19 04:22:07;;;;;;;23.50;16.35;;;3.70;79.90;;;;;;4986512;29;20047;-67
2021/04/19 04:24:47;;;;;;;20.58;15.63;;;3.70;79.90;;;;;;4992024;29;20091;-66
2021/04/19 04:27:22;;;;;;;20.60;15.38;;;3.70;80.60;;;;;;4991532;29;20474;-66
2021/04/19 04:29:54;;;;;;;20.95;15.25;;;3.70;79.10;;;;;;4990023;29;20149;-66
2021/04/19 04:32:45;;;;;;;20.60;14.77;;;3.80;79.10;;;;;;4999555;29;20433;-66
2021/04/19 04:35:32;;;;;;;20.60;16.20;;;3.80;79.00;;;;;;4985727;29;20050;-67
2021/04/19 04:38:14;;;;;;;22.73;17.00;;;3.80;78.80;;;;;;4989947;29;20058;-69
2021/04/19 04:40:52;;;;;;;19.63;15.30;;;3.90;78.60;;;;;;4989399;29;20038;-66
2021/04/19 04:43:26;;;;;;;18.98;15.25;;;3.90;78.40;;;;;;4992350;29;20134;-67
2021/04/19 04:46:13;;;;;;;18.90;14.55;;;3.90;78.90;;;;;;4990316;29;20049;-67
2021/04/19 04:49:06;;;;;;;19.20;14.55;;;3.80;78.70;;;;;;4991786;29;20041;-66
2021/04/19 04:51:40;;;;;;;18.20;13.57;;;3.80;78.60;;;;;;4989637;29;20046;-66
2021/04/19 04:54:17;;;;;;;19.80;14.30;;;3.90;78.60;;;;;;4990176;29;20054;-66
2021/04/19 04:56:55;;;;;;;19.52;14.27;;;3.90;78.50;;;;;;4990778;29;20111;-68
2021/04/19 04:59:28;;;;;;;19.55;14.23;;;3.90;78.40;;;;;;4991115;29;20457;-66
2021/04/19 05:02:00;;;;;;;18.70;12.68;;;4.00;78.10;;;;;;4989095;29;20053;-66
2021/04/19 05:04:33;;;;;;;19.35;13.85;;;4.00;77.70;;;;;;4991552;29;20053;-66
2021/04/19 05:07:05;;;;;;;18.08;13.63;;;4.00;78.00;;;;;;4993013;29;20053;-65
2021/04/19 05:09:37;;;;;;;19.52;14.90;;;4.10;78.10;;;;;;4989882;29;20102;-65
2021/04/19 05:12:10;;;;;;;20.27;15.65;;;4.10;78.20;;;;;;4990872;29;20042;-65
2021/04/19 05:15:06;;;;;;;20.42;14.85;;;4.10;78.20;;;;;;4988643;29;20046;-65
2021/04/19 05:17:37;;;;;;;21.38;15.20;;;4.10;78.20;;;;;;4988001;29;20042;-65
2021/04/19 05:20:11;;;;;;;21.17;15.30;;;4.20;77.90;;;;;;4988086;29;20060;-65
2021/04/19 05:22:44;;;;;;;18.83;14.88;;;4.20;77.80;;;;;;4990865;29;20149;-65
2021/04/19 05:25:15;;;;;;;19.80;15.55;;;4.20;77.60;;;;;;4989760;29;20556;-65
2021/04/19 05:27:47;;;;;;;21.83;15.68;;;4.30;77.60;;;;;;4990045;29;20050;-65
2021/04/19 05:30:19;;;;;;;19.42;15.45;;;4.30;77.40;;;;;;4989798;29;20046;-65
2021/04/19 05:32:50;;;;;;;19.70;15.30;;;4.40;77.30;;;;;;4991875;29;20038;-65
2021/04/19 05:35:21;;;;;;;20.42;14.88;;;4.40;77.20;;;;;;4995743;29;20053;-65
2021/04/19 05:37:54;;;;;;;20.35;16.17;;;4.40;77.30;;;;;;4991724;29;20172;-65
2021/04/19 05:40:28;;;;;;;22.98;16.17;;;4.40;77.60;;;;;;4991884;29;20061;-65
2021/04/19 05:43:01;;;;;;;22.08;16.70;;;4.40;77.70;;;;;;5008288;29;20137;-64
2021/04/19 05:45:35;;;;;;;20.48;16.17;;;4.40;77.80;;;;;;4993932;29;20041;-66
2021/04/19 05:48:08;;;;;;;20.48;15.52;;;4.40;77.90;;;;;;4991930;29;20077;-65
2021/04/19 05:50:41;;;;;;;19.77;15.23;;;4.40;78.20;;;;;;4993655;29;20536;-65
2021/04/19 05:53:13;;;;;;;21.35;16.73;;;4.40;77.70;;;;;;4990432;29;20138;-66
2021/04/19 05:55:45;;;;;;;20.95;15.75;;;4.50;77.50;;;;;;4990464;29;20250;-65
2021/04/19 05:58:35;;;;;;;19.67;15.13;;;4.50;77.30;;;;;;4994972;29;20045;-66
2021/04/19 06:01:12;;;;;;;21.70;16.75;;;4.50;77.30;;;;;;4993545;29;20138;-66
2021/04/19 06:04:11;;;;;;;20.17;15.82;;;4.60;77.30;;;;;;4992364;29;20046;-66
2021/04/19 06:06:48;;;;;;;20.17;15.52;;;4.60;76.90;;;;;;4989716;29;20046;-66
2021/04/19 06:09:39;;;;;;;20.58;16.15;;;4.70;76.90;;;;;;5008490;29;20057;-66
2021/04/19 06:12:35;;;;;;;18.13;14.85;;;4.80;76.90;;;;;;4987778;29;20050;-66
2021/04/19 06:15:13;;;;;;;18.38;14.73;;;5.00;75.90;;;;;;4989719;29;20062;-66
2021/04/19 06:17:50;;;;;;;18.60;15.05;;;5.10;75.90;;;;;;4987244;29;20058;-66
2021/04/19 06:20:23;;;;;;;20.52;14.65;;;5.20;75.10;;;;;;4992295;29;20500;-66
2021/04/19 06:22:57;;;;;;;18.77;15.50;;;5.30;75.10;;;;;;4991506;29;20054;-66
2021/04/19 06:25:28;;;;;;;22.08;15.43;;;5.40;74.10;;;;;;4990714;29;20038;-67
2021/04/19 06:28:03;;;;;;;19.65;15.60;;;5.60;74.50;;;;;;4995069;29;20797;-65
2021/04/19 06:30:42;;;;;;;16.98;13.45;;;5.70;72.80;;;;;;4990552;29;20078;-67
2021/04/19 06:33:15;;;;;;;17.20;14.05;;;6.00;72.70;;;;;;4994163;29;20118;-66
2021/04/19 06:35:48;;;;;;;20.83;16.13;;;6.30;72.10;;;;;;4991896;29;20050;-66
2021/04/19 06:38:20;;;;;;;20.98;16.35;;;6.60;70.50;;;;;;4992155;29;20106;-70
2021/04/19 06:40:51;;;;;;;17.48;14.20;;;6.70;69.60;;;;;;4990409;29;20046;-66
2021/04/19 06:43:23;;;;;;;17.45;14.52;;;6.90;68.60;;;;;;5006233;29;20058;-67
2021/04/19 06:45:56;;;;;;;17.88;13.52;;;6.90;68.10;;;;;;4991130;29;20053;-66
2021/04/19 06:48:28;;;;;;;16.45;14.05;;;7.00;67.40;;;;;;4991384;29;20046;-66
2021/04/19 06:50:59;;;;;;;19.13;15.63;;;7.10;67.70;;;;;;4992908;29;20057;-68
2021/04/19 06:53:31;;;;;;;18.27;15.23;;;7.10;67.60;;;;;;4993870;29;20050;-66
2021/04/19 06:56:06;;;;;;;16.65;13.45;;;7.00;67.20;;;;;;4995846;29;20042;-66
2021/04/19 06:58:41;;;;;;;16.80;14.35;;;7.00;67.80;;;;;;5006870;29;20046;-66
2021/04/19 07:01:18;;;;;;;18.83;13.73;;;6.80;68.70;;;;;;4993419;29;20046;-66
2021/04/19 07:03:55;;;;;;;17.70;14.32;;;6.70;69.40;;;;;;4987783;29;20517;-67
2021/04/19 07:06:31;;;;;;;17.77;13.90;;;6.80;68.20;;;;;;4990061;29;20061;-66
2021/04/19 07:09:03;;;;;;;17.20;14.38;;;6.80;67.80;;;;;;4994327;29;20134;-65
2021/04/19 07:11:37;;;;;;;19.02;15.23;;;6.90;68.70;;;;;;4989081;29;20133;-66
2021/04/19 07:14:11;;;;;;;17.92;13.65;;;7.10;66.70;;;;;;4994266;29;20052;-65
2021/04/19 07:16:42;;;;;;;18.83;14.93;;;7.30;66.40;;;;;;4989054;29;20050;-66
2021/04/19 07:19:17;;;;;;;20.02;14.68;;;7.50;67.30;;;;;;4993981;29;20535;-66
2021/04/19 07:21:49;;;;;;;16.95;13.68;;;7.70;65.50;;;;;;4988269;29;20050;-67
2021/04/19 07:24:21;;;;;;;16.48;13.88;;;7.60;64.60;;;;;;4990672;29;20052;-66
2021/04/19 07:26:55;;;;;;;16.30;13.07;;;7.90;65.00;;;;;;5006967;29;20509;-66
2021/04/19 07:29:26;;;;;;;15.20;13.57;;;8.10;65.80;;;;;;4993542;29;20085;-66
2021/04/19 07:31:59;;;;;;;15.00;12.55;;;8.30;63.10;;;;;;4990367;29;20106;-66
2021/04/19 07:34:31;;;;;;;13.35;11.23;;;8.40;62.40;;;;;;4990698;29;20052;-66
2021/04/19 07:37:06;;;;;;;11.82;10.30;;;8.50;60.70;;;;;;4990245;29;20122;-66
2021/04/19 07:39:40;;;;;;;12.48;10.65;;;8.60;57.70;;;;;;4991244;29;20057;-66
2021/04/19 07:42:12;;;;;;;15.65;11.93;;;8.50;57.50;;;;;;4992587;29;20081;-66
2021/04/19 07:44:45;;;;;;;12.88;11.38;;;8.70;58.20;;;;;;4989552;29;20042;-65
2021/04/19 07:47:35;;;;;;;14.30;11.25;;;8.90;59.60;;;;;;4991847;29;20042;-66
2021/04/19 07:50:12;;;;;;;15.20;12.07;;;9.20;58.30;;;;;;4990089;29;20042;-67
2021/04/19 07:53:00;;;;;;;14.65;12.13;;;9.50;56.90;;;;;;4989875;29;20050;-66
2021/04/19 07:55:36;;;;;;;16.05;11.25;;;9.80;55.90;;;;;;4990942;29;20060;-67
2021/04/19 07:58:22;;;;;;;14.60;12.40;;;10.00;56.40;;;;;;4992080;29;20054;-66
2021/04/19 08:01:03;;;;;;;11.27;10.07;;;10.20;56.20;;;;;;4990199;29;20042;-66
2021/04/19 08:03:38;;;;;;;15.13;11.90;;;10.30;51.90;;;;;;4991936;29;20050;-66
2021/04/19 08:06:17;;;;;;;13.65;11.80;;;9.90;52.20;;;;;;4995196;29;20046;-66
2021/04/19 08:08:50;;;;;;;13.77;11.27;;;10.10;53.10;;;;;;4988498;29;20102;-66
2021/04/19 08:11:21;;;;;;;12.38;11.05;;;10.30;53.40;;;;;;4993960;29;20107;-66
2021/04/19 08:14:04;;;;;;;13.52;10.60;;;10.50;53.30;;;;;;4990568;29;20054;-66
2021/04/19 08:16:37;;;;;;;13.38;10.00;;;10.70;50.20;;;;;;4991179;29;20073;-66
2021/04/19 08:19:09;;;;;;;11.82;10.15;;;10.90;51.50;;;;;;4990476;29;20070;-66
2021/04/19 08:21:40;;;;;;;11.48;9.82;;;10.80;52.10;;;;;;4990994;29;20047;-69
2021/04/19 08:24:15;;;;;;;11.30;9.88;;;10.90;50.00;;;;;;4991833;29;20046;-67
2021/04/19 08:26:56;;;;;;;14.65;11.90;;;10.70;51.00;;;;;;4994641;29;20466;-66
2021/04/19 08:29:42;;;;;;;14.73;11.35;;;10.80;51.50;;;;;;4990705;29;20058;-67
2021/04/19 08:32:17;;;;;;;11.65;9.85;;;10.70;51.30;;;;;;4989910;29;20571;-66
2021/04/19 08:34:50;;;;;;;11.02;9.82;;;10.60;49.70;;;;;;4988317;29;20057;-66
2021/04/19 08:37:26;;;;;;;11.35;10.05;;;10.60;49.30;;;;;;4986032;29;20050;-66
2021/04/19 08:39:59;;;;;;;10.88;9.07;;;10.80;47.90;;;;;;4990375;29;20497;-66
2021/04/19 08:42:33;;;;;;;10.68;9.57;;;10.80;45.60;;;;;;4989650;29;20403;-66
2021/04/19 08:45:06;;;;;;;12.43;9.60;;;10.70;49.00;;;;;;4987841;29;20050;-66
2021/04/19 08:47:39;;;;;;;11.20;9.98;;;10.70;47.40;;;;;;4991061;29;20536;-68
2021/04/19 08:50:16;;;;;;;10.70;9.60;;;10.80;48.60;;;;;;4989537;29;20149;-66
2021/04/19 08:52:49;;;;;;;9.95;8.95;;;11.00;47.10;;;;;;4991099;29;20085;-66
2021/04/19 08:55:24;;;;;;;10.65;9.52;;;10.90;43.50;;;;;;5003853;29;20182;-66
2021/04/19 08:57:59;;;;;;;9.50;8.55;;;11.00;46.20;;;;;;4989855;29;20584;-66
2021/04/19 09:00:32;;;;;;;11.27;8.82;;;10.90;46.40;;;;;;4992459;29;20054;-66
2021/04/19 09:03:04;;;;;;;10.50;8.95;;;11.00;45.50;;;;;;4991117;29;20413;-67
2021/04/19 09:05:35;;;;;;;10.38;8.68;;;11.20;44.80;;;;;;4989339;29;20062;-66
2021/04/19 09:08:09;;;;;;;9.55;8.55;;;11.20;44.60;;;;;;5000314;29;20070;-67
2021/04/19 09:10:55;;;;;;;10.10;8.57;;;11.20;42.10;;;;;;4992251;29;20134;-67
2021/04/19 09:13:31;;;;;;;9.75;8.27;;;10.90;43.60;;;;;;4995180;29;20129;-66
2021/04/19 09:16:20;;;;;;;10.57;8.38;;;10.90;45.50;;;;;;4995099;29;20132;-66
2021/04/19 09:18:54;;;;;;;9.85;8.23;;;11.10;46.30;;;;;;4991214;29;20051;-66
2021/04/19 09:21:49;;;;;;;9.82;8.02;;;11.50;44.40;;;;;;4992852;29;20058;-65
2021/04/19 09:24:23;;;;;;;9.65;7.82;;;11.70;41.10;;;;;;4992478;29;20046;-67
2021/04/19 09:26:58;;;;;;;9.80;8.23;;;11.50;41.40;;;;;;5007800;29;20137;-66
2021/04/19 09:29:30;;;;;;;10.13;8.43;;;11.80;43.60;;;;;;4993609;29;20057;-66
2021/04/19 09:32:18;;;;;;;9.88;8.13;;;12.00;38.70;;;;;;4992149;29;20850;-66
2021/04/19 09:34:53;;;;;;;8.93;7.65;;;12.10;41.80;;;;;;4992231;29;20128;-66
2021/04/19 09:37:37;;;;;;;8.68;7.78;;;12.40;42.70;;;;;;4992109;29;20051;-65
2021/04/19 09:40:15;;;;;;;9.15;7.20;;;12.40;41.10;;;;;;4989976;29;20077;-67
2021/04/19 09:42:56;;;;;;;20.15;7.70;;;12.30;39.60;;;;;;4993259;29;20046;-66
2021/04/19 09:45:49;;;;;;;8.35;7.45;;;12.10;40.90;;;;;;4991612;29;20062;-66
2021/04/19 09:48:45;;;;;;;8.35;7.55;;;12.10;41.00;;;;;;4991932;29;20185;-66
2021/04/19 09:51:17;;;;;;;8.40;7.10;;;12.10;41.30;;;;;;5004092;29;20046;-65
2021/04/19 09:54:01;;;;;;;9.38;7.88;;;12.00;40.70;;;;;;4995944;29;20042;-66
2021/04/19 09:56:37;;;;;;;8.68;7.80;;;12.00;42.40;;;;;;4993918;29;20819;-65
2021/04/19 09:59:15;;;;;;;9.32;7.90;;;12.10;40.30;;;;;;4994599;29;20041;-66
2021/04/19 10:01:49;;;;;;;8.52;7.63;;;12.10;39.60;;;;;;4991405;29;20045;-66
2021/04/19 10:04:22;;;;;;;7.82;6.97;;;12.20;42.40;;;;;;4993549;29;20062;-65
2021/04/19 10:07:01;;;;;;;6.88;6.18;;;12.20;38.30;;;;;;4992012;29;20142;-66
2021/04/19 10:09:35;;;;;;;7.95;6.80;;;11.30;38.60;;;;;;5005558;29;20045;-65
2021/04/19 10:12:09;;;;;;;7.40;6.50;;;11.00;39.20;;;;;;4989312;29;20099;-65
2021/04/19 10:14:41;;;;;;;8.50;6.70;;;11.00;39.50;;;;;;4989554;29;20069;-66
2021/04/19 10:17:22;;;;;;;7.88;7.07;;;11.00;40.00;;;;;;4993833;29;20118;-66
2021/04/19 10:19:54;;;;;;;8.38;7.25;;;10.90;39.90;;;;;;4994510;29;20500;-66
2021/04/19 10:22:25;;;;;;;7.90;6.90;;;10.90;42.00;;;;;;4991590;29;20626;-65
2021/04/19 10:24:58;;;;;;;8.40;6.95;;;11.00;40.40;;;;;;4992017;29;20049;-65
2021/04/19 10:27:31;;;;;;;7.93;7.00;;;11.00;41.90;;;;;;4993662;29;20053;-65
2021/04/19 10:33:55;;;;;;;8.32;7.20;;;11.60;39.10;;;;;;4993308;29;20050;-66
2021/04/19 10:36:29;;;;;;;8.57;7.30;;;11.70;40.50;;;;;;4993452;29;20128;-66
2021/04/19 10:39:12;;;;;;;7.95;6.75;;;11.80;38.60;;;;;;4993023;29;20426;-66
2021/04/19 10:41:45;;;;;;;7.35;6.30;;;11.80;39.80;;;;;;4989683;29;20106;-65
2021/04/19 10:44:35;;;;;;;7.28;6.28;;;11.80;39.30;;;;;;4990947;29;20099;-66
2021/04/19 10:47:11;;;;;;;8.70;6.80;;;11.80;38.80;;;;;;5003889;29;20046;-65
2021/04/19 10:49:43;;;;;;;9.02;7.18;;;11.80;39.20;;;;;;5005120;29;20125;-66
2021/04/19 10:52:14;;;;;;;9.05;7.15;;;11.70;38.80;;;;;;4990249;29;20050;-67
2021/04/19 10:54:46;;;;;;;8.55;7.65;;;11.70;39.90;;;;;;4992740;29;20046;-66
2021/04/19 10:57:24;;;;;;;9.93;7.68;;;11.90;39.60;;;;;;4993706;29;20054;-65
2021/04/19 10:59:58;;;;;;;7.45;6.65;;;12.00;38.50;;;;;;4993422;29;20557;-65
2021/04/19 11:02:30;;;;;;;8.38;7.15;;;11.90;39.10;;;;;;4989988;29;20045;-65
2021/04/19 11:05:04;;;;;;;8.10;7.25;;;12.10;38.60;;;;;;4990555;29;20045;-66
2021/04/19 11:07:36;;;;;;;8.48;7.40;;;12.00;37.80;;;;;;4989817;29;20035;-65
2021/04/19 11:10:18;;;;;;;9.07;7.55;;;11.80;39.50;;;;;;4989437;29;20544;-65
2021/04/19 11:13:02;;;;;;;9.27;8.02;;;11.90;39.30;;;;;;4992485;29;20880;-64
2021/04/19 11:15:42;;;;;;;8.77;7.63;;;12.00;39.20;;;;;;4993206;29;20360;-65
2021/04/19 11:18:21;;;;;;;9.23;7.65;;;12.10;39.50;;;;;;4987866;29;20061;-65
2021/04/19 11:20:54;;;;;;;8.90;7.97;;;12.10;38.70;;;;;;4989008;29;20098;-65
2021/04/19 11:23:31;;;;;;;9.35;8.07;;;12.20;40.10;;;;;;4989914;29;20058;-66
2021/04/19 11:26:09;;;;;;;9.25;8.30;;;12.20;40.30;;;;;;4989613;29;20054;-65
2021/04/19 11:28:43;;;;;;;9.10;8.07;;;12.20;39.40;;;;;;4992321;29;20048;-65
2021/04/19 11:31:19;;;;;;;8.95;7.43;;;12.20;40.00;;;;;;4986999;29;20418;-65
2021/04/19 11:34:11;;;;;;;8.23;7.43;;;12.20;41.10;;;;;;4990605;29;20061;-65
2021/04/19 11:37:03;;;;;;;8.50;7.60;;;12.20;40.80;;;;;;4990005;29;20061;-67
2021/04/19 11:39:39;;;;;;;9.65;7.90;;;12.30;39.10;;;;;;4990171;29;20041;-65
2021/04/19 11:42:30;;;;;;;9.38;8.38;;;12.20;39.60;;;;;;4994908;29;20432;-65
2021/04/19 11:45:04;;;;;;;9.43;8.43;;;12.20;39.70;;;;;;4990559;29;20042;-66
2021/04/19 11:47:36;;;;;;;9.18;8.18;;;12.20;40.60;;;;;;4988432;29;20058;-65
2021/04/19 11:50:08;;;;;;;8.85;7.63;;;12.20;40.20;;;;;;4991352;29;20521;-65
2021/04/19 11:52:46;;;;;;;9.48;8.35;;;12.00;41.20;;;;;;4992038;29;20054;-66
2021/04/19 11:55:18;;;;;;;9.27;8.02;;;11.90;41.00;;;;;;4990703;29;20106;-64
2021/04/19 11:57:49;;;;;;;10.07;8.85;;;11.70;42.20;;;;;;4991578;29;20110;-65
2021/04/19 12:00:21;;;;;;;13.80;11.05;;;11.60;42.00;;;;;;4990130;29;20577;-65
2021/04/19 12:02:54;;;;;;;17.45;15.18;;;11.40;42.80;;;;;;4986182;29;20525;-65
2021/04/19 12:05:25;;;;;;;10.48;9.38;;;11.40;43.80;;;;;;5003383;29;20081;-66
2021/04/19 12:07:56;;;;;;;10.73;9.63;;;11.30;42.80;;;;;;4992079;29;20064;-65
2021/04/19 12:10:28;;;;;;;29.08;24.02;;;11.40;44.70;;;;;;5004650;29;20133;-65
2021/04/19 12:12:59;;;;;;;21.63;18.30;;;11.40;44.40;;;;;;4989979;29;20531;-65
2021/04/19 12:15:32;;;;;;;11.25;8.90;;;11.40;44.00;;;;;;4990623;29;21050;-66
2021/04/19 12:18:03;;;;;;;9.82;8.80;;;11.40;45.50;;;;;;4989118;29;20132;-65
2021/04/19 12:20:35;;;;;;;9.00;8.10;;;11.30;48.30;;;;;;5001412;29;20054;-66
2021/04/19 12:23:07;;;;;;;10.38;8.27;;;11.30;45.20;;;;;;4989972;29;20077;-65
2021/04/19 12:25:39;;;;;;;9.68;7.70;;;11.50;45.70;;;;;;4986912;29;20692;-66
2021/04/19 12:28:10;;;;;;;9.20;8.30;;;11.40;45.90;;;;;;4991539;29;20054;-65
2021/04/19 12:30:42;;;;;;;9.30;8.07;;;11.50;47.20;;;;;;4995866;29;20078;-65
2021/04/19 12:33:14;;;;;;;11.77;8.35;;;11.60;45.30;;;;;;4999063;29;20791;-67
2021/04/19 12:35:46;;;;;;;9.80;8.77;;;11.80;44.40;;;;;;4991658;29;20078;-67
2021/04/19 12:38:18;;;;;;;10.45;8.85;;;11.90;43.40;;;;;;4987212;29;20086;-66
2021/04/19 12:40:49;;;;;;;8.98;7.88;;;12.00;43.50;;;;;;4985998;29;20756;-65
2021/04/19 12:43:21;;;;;;;9.27;8.18;;;12.00;42.20;;;;;;4991992;29;20540;-65
2021/04/19 12:45:57;;;;;;;9.00;8.10;;;12.10;41.50;;;;;;4992096;29;20823;-66
2021/04/19 12:48:28;;;;;;;9.10;7.72;;;12.30;41.20;;;;;;4993976;29;20053;-64
2021/04/19 12:51:00;;;;;;;10.23;9.23;;;12.80;40.60;;;;;;4991531;29;20743;-65
2021/04/19 12:53:31;;;;;;;8.85;7.95;;;13.30;41.10;;;;;;4992267;29;20054;-66
2021/04/19 12:56:03;;;;;;;9.07;8.23;;;13.60;38.40;;;;;;5007272;29;20066;-66
2021/04/19 12:58:40;;;;;;;10.18;8.75;;;13.70;38.60;;;;;;4991492;29;20054;-66
2021/04/19 13:01:12;;;;;;;9.15;8.25;;;13.80;37.30;;;;;;4992876;29;20058;-65
2021/04/19 13:03:44;;;;;;;9.73;8.80;;;13.70;36.10;;;;;;4993654;29;20054;-65
2021/04/19 13:06:15;;;;;;;9.88;8.98;;;14.00;36.50;;;;;;5007174;29;20066;-66
2021/04/19 13:08:47;;;;;;;9.00;8.20;;;14.30;36.40;;;;;;4992766;29;20524;-66
2021/04/19 13:11:20;;;;;;;9.60;8.70;;;14.40;35.60;;;;;;4998731;29;20054;-66
2021/04/19 13:13:51;;;;;;;9.07;8.18;;;14.50;34.90;;;;;;4994641;29;20126;-65
2021/04/19 13:16:23;;;;;;;9.40;8.50;;;14.40;35.60;;;;;;4990809;29;20042;-66
2021/04/19 13:18:54;;;;;;;10.02;8.90;;;14.40;35.40;;;;;;4992610;29;20497;-65
2021/04/19 13:21:28;;;;;;;9.32;8.38;;;14.30;35.80;;;;;;5006610;29;20138;-65
2021/04/19 13:24:03;;;;;;;9.75;8.77;;;14.00;36.00;;;;;;4992758;29;20162;-65
2021/04/19 13:26:35;;;;;;;9.93;8.93;;;14.00;36.20;;;;;;4989466;29;20069;-66
2021/04/19 13:29:06;;;;;;;9.77;8.88;;;14.20;36.80;;;;;;4994251;29;20049;-66
2021/04/19 13:31:38;;;;;;;9.60;8.60;;;14.40;34.50;;;;;;4993171;29;20053;-65